createdAt,value
2019-03-27T00:00:14.195Z,0.00
2019-03-27T00:01:14.182Z,0.00
2019-03-27T00:02:14.170Z,0.00
2019-03-27T00:03:14.162Z,0.00
2019-03-27T00:04:14.170Z,0.00
2019-03-27T00:05:14.137Z,0.00
2019-03-27T00:06:14.126Z,0.00
2019-03-27T00:07:14.115Z,0.00
2019-03-27T00:08:14.104Z,0.00
2019-03-27T00:09:14.112Z,0.00
2019-03-27T00:10:14.097Z,0.00
2019-03-27T00:11:16.170Z,0.00
2019-03-27T00:12:14.057Z,0.00
2019-03-27T00:13:14.048Z,0.00
2019-03-27T00:14:14.053Z,0.00
2019-03-27T00:15:14.040Z,0.00
2019-03-27T00:16:14.012Z,0.00
2019-03-27T00:17:14.003Z,0.00
2019-03-27T00:18:13.993Z,0.00
2019-03-27T00:19:13.978Z,0.00
2019-03-27T00:20:13.982Z,0.00
2019-03-27T00:21:13.953Z,0.00
2019-03-27T00:22:13.944Z,0.00
2019-03-27T00:23:13.933Z,0.00
2019-03-27T00:24:13.922Z,0.00
2019-03-27T00:25:13.925Z,0.00
2019-03-27T00:26:13.897Z,0.00
2019-03-27T00:27:13.885Z,0.00
2019-03-27T00:28:13.872Z,0.00
2019-03-27T00:29:13.860Z,0.00
2019-03-27T00:30:13.883Z,0.00
2019-03-27T00:31:13.841Z,0.00
2019-03-27T00:32:13.842Z,0.00
2019-03-27T00:33:13.820Z,0.00
2019-03-27T00:34:13.806Z,0.00
2019-03-27T00:35:13.812Z,0.00
2019-03-27T00:36:13.778Z,0.00
2019-03-27T00:37:13.767Z,0.00
2019-03-27T00:38:13.757Z,0.00
2019-03-27T00:39:13.745Z,0.00
2019-03-27T00:40:13.733Z,0.00
2019-03-27T00:41:13.789Z,0.00
2019-03-27T00:42:13.713Z,0.00
2019-03-27T00:43:13.730Z,0.00
2019-03-27T00:44:13.694Z,0.00
2019-03-27T00:45:25.782Z,0.00
2019-03-27T00:46:14.681Z,0.00
2019-03-27T00:47:13.652Z,0.00
2019-03-27T00:48:13.641Z,0.00
2019-03-27T00:49:13.631Z,0.00
2019-03-27T00:50:13.619Z,0.00
2019-03-27T00:51:13.626Z,0.00
2019-03-27T00:52:13.597Z,0.00
2019-03-27T00:53:13.585Z,0.00
2019-03-27T00:54:13.573Z,0.00
2019-03-27T00:55:13.565Z,0.00
2019-03-27T00:56:13.570Z,0.00
2019-03-27T00:57:13.536Z,0.00
2019-03-27T00:58:13.527Z,0.00
2019-03-27T00:59:13.518Z,0.00
2019-03-27T01:00:13.501Z,0.00
2019-03-27T01:01:13.522Z,0.00
2019-03-27T01:02:13.484Z,0.00
2019-03-27T01:03:13.470Z,0.00
2019-03-27T01:04:13.459Z,0.00
2019-03-27T01:05:13.444Z,0.00
2019-03-27T01:06:13.477Z,0.00
2019-03-27T01:07:13.445Z,0.00
2019-03-27T01:08:13.411Z,0.00
2019-03-27T01:09:13.401Z,0.00
2019-03-27T01:10:13.388Z,0.00
2019-03-27T01:11:13.378Z,0.00
2019-03-27T01:12:13.403Z,0.00
2019-03-27T01:13:13.355Z,0.00
2019-03-27T01:14:13.343Z,0.00
2019-03-27T01:15:13.329Z,0.00
2019-03-27T01:16:13.323Z,0.00
2019-03-27T01:17:13.307Z,0.00
2019-03-27T01:18:13.315Z,0.00
2019-03-27T01:19:13.284Z,0.00
2019-03-27T01:20:13.270Z,0.00
2019-03-27T01:21:13.263Z,0.00
2019-03-27T01:22:13.247Z,0.00
2019-03-27T01:23:13.256Z,0.00
2019-03-27T01:24:13.226Z,0.00
2019-03-27T01:25:13.214Z,0.00
2019-03-27T01:26:13.203Z,0.00
2019-03-27T01:27:13.189Z,0.00
2019-03-27T01:28:13.229Z,0.00
2019-03-27T01:29:13.165Z,0.00
2019-03-27T01:30:13.154Z,0.00
2019-03-27T01:31:13.146Z,0.00
2019-03-27T01:32:13.133Z,0.00
2019-03-27T01:33:13.144Z,0.00
2019-03-27T01:34:13.110Z,0.00
2019-03-27T01:35:13.103Z,0.00
2019-03-27T01:36:13.088Z,0.00
2019-03-27T01:37:13.076Z,0.00
2019-03-27T01:38:13.062Z,0.00
2019-03-27T01:39:13.068Z,0.00
2019-03-27T01:40:13.054Z,0.00
2019-03-27T01:41:13.028Z,0.00
2019-03-27T01:42:13.016Z,0.00
2019-03-27T01:43:13.007Z,0.00
2019-03-27T01:44:13.015Z,0.00
2019-03-27T01:45:12.981Z,0.00
2019-03-27T01:46:12.975Z,0.00
2019-03-27T01:47:12.958Z,0.00
2019-03-27T01:48:12.947Z,0.00
2019-03-27T01:49:12.953Z,0.00
2019-03-27T01:50:12.923Z,0.00
2019-03-27T01:51:12.915Z,0.00
2019-03-27T01:52:12.903Z,0.00
2019-03-27T01:53:12.893Z,0.00
2019-03-27T01:54:12.878Z,0.00
2019-03-27T01:55:12.888Z,0.00
2019-03-27T01:56:12.856Z,0.00
2019-03-27T01:57:12.843Z,0.00
2019-03-27T01:58:12.832Z,0.00
2019-03-27T01:59:12.822Z,0.00
2019-03-27T02:00:12.826Z,0.00
2019-03-27T02:01:12.797Z,0.00
2019-03-27T02:02:12.787Z,0.00
2019-03-27T02:03:12.775Z,0.00
2019-03-27T02:04:12.763Z,0.00
2019-03-27T02:05:12.772Z,0.00
2019-03-27T02:06:12.741Z,0.00
2019-03-27T02:07:12.731Z,0.00
2019-03-27T02:08:12.718Z,0.00
2019-03-27T02:09:12.708Z,0.00
2019-03-27T02:10:12.695Z,0.00
2019-03-27T02:11:12.702Z,0.00
2019-03-27T02:12:12.671Z,0.00
2019-03-27T02:13:12.660Z,0.00
2019-03-27T02:14:12.647Z,0.00
2019-03-27T02:15:12.637Z,0.00
2019-03-27T02:16:12.668Z,0.00
2019-03-27T02:17:12.612Z,0.00
2019-03-27T02:18:12.605Z,0.00
2019-03-27T02:19:12.598Z,0.00
2019-03-27T02:20:12.581Z,0.00
2019-03-27T02:21:12.565Z,0.00
2019-03-27T02:22:12.574Z,0.00
2019-03-27T02:23:12.545Z,0.00
2019-03-27T02:24:12.534Z,0.00
2019-03-27T02:25:12.518Z,0.00
2019-03-27T02:26:12.508Z,0.00
2019-03-27T02:27:12.516Z,0.00
2019-03-27T02:28:12.559Z,0.00
2019-03-27T02:29:12.479Z,0.00
2019-03-27T02:30:12.464Z,0.00
2019-03-27T02:31:12.525Z,0.00
2019-03-27T02:32:12.473Z,0.00
2019-03-27T02:33:12.433Z,0.00
2019-03-27T02:34:12.420Z,0.00
2019-03-27T02:35:12.440Z,0.00
2019-03-27T02:36:12.394Z,0.00
2019-03-27T02:37:12.407Z,0.00
2019-03-27T02:38:12.372Z,0.00
2019-03-27T02:39:12.363Z,0.00
2019-03-27T02:40:12.350Z,0.00
2019-03-27T02:41:12.340Z,0.00
2019-03-27T02:42:12.334Z,0.00
2019-03-27T02:43:12.344Z,0.00
2019-03-27T02:44:12.306Z,0.00
2019-03-27T02:45:12.294Z,0.00
2019-03-27T02:46:25.193Z,0.00
2019-03-27T02:47:13.281Z,0.00
2019-03-27T02:48:14.133Z,0.00
2019-03-27T02:49:12.241Z,0.00
2019-03-27T02:50:12.230Z,0.00
2019-03-27T02:51:12.220Z,0.00
2019-03-27T02:52:12.209Z,0.00
2019-03-27T02:53:12.270Z,0.00
2019-03-27T02:54:12.212Z,0.00
2019-03-27T02:55:12.173Z,0.00
2019-03-27T02:56:12.163Z,0.00
2019-03-27T02:57:12.156Z,0.00
2019-03-27T02:58:12.159Z,0.00
2019-03-27T02:59:12.131Z,0.00
2019-03-27T03:00:12.125Z,0.00
2019-03-27T03:01:12.106Z,0.00
2019-03-27T03:02:12.094Z,0.00
2019-03-27T03:03:12.122Z,0.00
2019-03-27T03:04:12.072Z,0.00
2019-03-27T03:05:12.058Z,0.00
2019-03-27T03:06:12.071Z,0.00
2019-03-27T03:07:12.043Z,0.00
2019-03-27T03:08:12.021Z,0.00
2019-03-27T03:09:12.032Z,0.00
2019-03-27T03:10:12.001Z,0.00
2019-03-27T03:11:11.990Z,0.00
2019-03-27T03:12:11.990Z,0.00
2019-03-27T03:13:11.971Z,0.00
2019-03-27T03:14:11.974Z,0.00
2019-03-27T03:15:11.975Z,0.00
2019-03-27T03:16:11.935Z,0.00
2019-03-27T03:17:11.931Z,0.00
2019-03-27T03:18:11.921Z,0.00
2019-03-27T03:19:11.921Z,0.00
2019-03-27T03:20:11.883Z,0.00
2019-03-27T03:21:11.878Z,0.00
2019-03-27T03:22:11.863Z,0.00
2019-03-27T03:23:11.849Z,0.00
2019-03-27T03:24:11.839Z,0.00
2019-03-27T03:25:11.862Z,0.00
2019-03-27T03:26:11.815Z,0.00
2019-03-27T03:27:11.804Z,0.00
2019-03-27T03:28:11.819Z,0.00
2019-03-27T03:29:11.785Z,0.00
2019-03-27T03:30:11.848Z,0.00
2019-03-27T03:31:11.761Z,0.00
2019-03-27T03:32:11.749Z,0.00
2019-03-27T03:33:11.738Z,0.00
2019-03-27T03:34:11.741Z,0.00
2019-03-27T03:35:11.723Z,0.00
2019-03-27T03:36:11.722Z,0.00
2019-03-27T03:37:11.691Z,0.00
2019-03-27T03:38:11.693Z,0.00
2019-03-27T03:39:11.669Z,0.00
2019-03-27T03:40:11.658Z,0.00
2019-03-27T03:41:11.670Z,0.00
2019-03-27T03:42:11.634Z,0.00
2019-03-27T03:43:11.627Z,0.00
2019-03-27T03:44:11.611Z,0.00
2019-03-27T03:45:11.598Z,0.00
2019-03-27T03:46:11.602Z,0.00
2019-03-27T03:47:11.595Z,0.00
2019-03-27T03:48:11.566Z,0.00
2019-03-27T03:49:11.560Z,0.00
2019-03-27T03:50:11.543Z,0.00
2019-03-27T03:51:11.533Z,0.00
2019-03-27T03:52:11.558Z,0.00
2019-03-27T03:53:11.515Z,0.00
2019-03-27T03:54:11.498Z,0.00
2019-03-27T03:55:11.486Z,0.00
2019-03-27T03:56:11.479Z,0.00
2019-03-27T03:57:11.482Z,0.00
2019-03-27T03:58:11.451Z,0.00
2019-03-27T03:59:11.445Z,0.00
2019-03-27T04:00:11.428Z,0.00
2019-03-27T04:01:11.416Z,0.00
2019-03-27T04:02:11.430Z,0.00
2019-03-27T04:03:11.395Z,0.00
2019-03-27T04:04:11.385Z,0.00
2019-03-27T04:05:11.376Z,0.00
2019-03-27T04:06:11.369Z,0.00
2019-03-27T04:07:11.358Z,0.00
2019-03-27T04:08:11.359Z,0.00
2019-03-27T04:09:11.331Z,0.00
2019-03-27T04:10:11.317Z,0.00
2019-03-27T04:11:11.303Z,0.00
2019-03-27T04:12:11.290Z,0.00
2019-03-27T04:13:11.323Z,0.00
2019-03-27T04:14:11.270Z,0.00
2019-03-27T04:15:11.269Z,0.00
2019-03-27T04:16:11.246Z,0.00
2019-03-27T04:17:17.483Z,0.00
2019-03-27T04:18:12.246Z,0.00
2019-03-27T04:19:11.212Z,0.00
2019-03-27T04:20:11.215Z,0.00
2019-03-27T04:21:11.191Z,0.00
2019-03-27T04:22:11.185Z,0.00
2019-03-27T04:23:11.167Z,0.00
2019-03-27T04:24:11.176Z,0.00
2019-03-27T04:25:11.144Z,0.00
2019-03-27T04:26:11.227Z,0.00
2019-03-27T04:27:11.122Z,0.00
2019-03-27T04:28:11.111Z,0.00
2019-03-27T04:29:11.124Z,0.00
2019-03-27T04:30:11.097Z,0.00
2019-03-27T04:31:11.080Z,0.00
2019-03-27T04:32:11.066Z,0.00
2019-03-27T04:33:11.054Z,0.00
2019-03-27T04:34:11.063Z,0.00
2019-03-27T04:35:11.031Z,0.00
2019-03-27T04:36:11.021Z,0.00
2019-03-27T04:37:11.007Z,0.00
2019-03-27T04:38:10.997Z,0.00
2019-03-27T04:39:10.992Z,0.00
2019-03-27T04:40:11.011Z,0.00
2019-03-27T04:41:10.962Z,0.00
2019-03-27T04:42:10.952Z,0.00
2019-03-27T04:43:10.941Z,0.00
2019-03-27T04:44:10.946Z,0.00
2019-03-27T04:45:10.944Z,4.00
2019-03-27T04:46:10.906Z,0.00
2019-03-27T04:47:10.892Z,0.00
2019-03-27T04:48:10.884Z,4.00
2019-03-27T04:49:10.870Z,4.00
2019-03-27T04:50:10.859Z,4.00
2019-03-27T04:51:10.868Z,4.00
2019-03-27T04:52:10.834Z,4.00
2019-03-27T04:53:10.826Z,8.00
2019-03-27T04:54:10.816Z,8.00
2019-03-27T04:55:10.802Z,8.00
2019-03-27T04:56:10.809Z,8.00
2019-03-27T04:57:10.778Z,12.00
2019-03-27T04:58:10.767Z,12.00
2019-03-27T04:59:10.755Z,20.00
2019-03-27T05:00:10.744Z,20.00
2019-03-27T05:01:10.757Z,24.00
2019-03-27T05:02:10.718Z,28.00
2019-03-27T05:03:10.708Z,36.00
2019-03-27T05:04:10.698Z,36.00
2019-03-27T05:05:10.685Z,44.00
2019-03-27T05:06:10.695Z,48.00
2019-03-27T05:07:13.620Z,60.00
2019-03-27T05:08:10.655Z,68.00
2019-03-27T05:09:10.651Z,76.00
2019-03-27T05:10:10.627Z,88.00
2019-03-27T05:11:10.640Z,96.00
2019-03-27T05:12:10.604Z,112.00
2019-03-27T05:13:10.594Z,128.00
2019-03-27T05:14:10.626Z,140.00
2019-03-27T05:15:10.568Z,160.00
2019-03-27T05:16:10.559Z,184.00
2019-03-27T05:17:10.570Z,204.00
2019-03-27T05:18:10.535Z,224.00
2019-03-27T05:19:10.525Z,236.00
2019-03-27T05:20:10.516Z,252.00
2019-03-27T05:21:10.504Z,260.00
2019-03-27T05:22:10.491Z,272.00
2019-03-27T05:23:10.504Z,276.00
2019-03-27T05:24:10.464Z,292.00
2019-03-27T05:25:10.457Z,320.00
2019-03-27T05:26:10.446Z,348.00
2019-03-27T05:27:10.430Z,372.00
2019-03-27T05:28:10.439Z,376.00
2019-03-27T05:29:10.412Z,392.00
2019-03-27T05:30:10.397Z,420.00
2019-03-27T05:31:10.388Z,436.00
2019-03-27T05:32:10.375Z,432.00
2019-03-27T05:33:10.363Z,440.00
2019-03-27T05:34:10.369Z,468.00
2019-03-27T05:35:10.340Z,496.00
2019-03-27T05:36:10.328Z,532.00
2019-03-27T05:37:10.317Z,572.00
2019-03-27T05:38:10.377Z,604.00
2019-03-27T05:39:10.316Z,604.00
2019-03-27T05:40:10.281Z,592.00
2019-03-27T05:41:10.269Z,580.00
2019-03-27T05:42:10.256Z,548.00
2019-03-27T05:43:10.249Z,532.00
2019-03-27T05:44:10.237Z,536.00
2019-03-27T05:45:10.243Z,568.00
2019-03-27T05:46:10.211Z,584.00
2019-03-27T05:47:10.202Z,568.00
2019-03-27T05:48:10.189Z,544.00
2019-03-27T05:49:10.177Z,520.00
2019-03-27T05:50:10.187Z,484.00
2019-03-27T05:51:10.155Z,468.00
2019-03-27T05:52:10.143Z,464.00
2019-03-27T05:53:10.132Z,460.00
2019-03-27T05:54:10.120Z,460.00
2019-03-27T05:55:10.129Z,468.00
2019-03-27T05:56:10.098Z,496.00
2019-03-27T05:57:10.085Z,520.00
2019-03-27T05:58:10.076Z,572.00
2019-03-27T05:59:10.061Z,648.00
2019-03-27T06:00:10.094Z,752.00
2019-03-27T06:01:10.056Z,852.00
2019-03-27T06:02:10.032Z,944.00
2019-03-27T06:03:10.018Z,1000.00
2019-03-27T06:04:10.010Z,1008.00
2019-03-27T06:05:09.992Z,1012.00
2019-03-27T06:06:10.005Z,1044.00
2019-03-27T06:07:09.972Z,1124.00
2019-03-27T06:08:09.960Z,1204.00
2019-03-27T06:09:09.951Z,1248.00
2019-03-27T06:10:09.936Z,1264.00
2019-03-27T06:11:09.951Z,1252.00
2019-03-27T06:12:09.915Z,1184.00
2019-03-27T06:13:09.902Z,1176.00
2019-03-27T06:14:09.889Z,1272.00
2019-03-27T06:15:09.879Z,1496.00
2019-03-27T06:16:09.867Z,1612.00
2019-03-27T06:17:09.876Z,1464.00
2019-03-27T06:18:13.381Z,1456.00
2019-03-27T06:19:09.834Z,1512.00
2019-03-27T06:20:09.821Z,1584.00
2019-03-27T06:21:09.811Z,1648.00
2019-03-27T06:22:09.819Z,1700.00
2019-03-27T06:23:09.786Z,1940.00
2019-03-27T06:24:09.776Z,2072.00
2019-03-27T06:25:09.790Z,2304.00
2019-03-27T06:26:09.759Z,2648.00
2019-03-27T06:27:09.767Z,2496.00
2019-03-27T06:28:09.735Z,2688.00
2019-03-27T06:29:09.719Z,2672.00
2019-03-27T06:30:09.707Z,2732.00
2019-03-27T06:31:09.695Z,2848.00
2019-03-27T06:32:09.685Z,2816.00
2019-03-27T06:33:09.693Z,3180.00
2019-03-27T06:34:09.661Z,3600.00
2019-03-27T06:35:09.652Z,3656.00
2019-03-27T06:36:09.638Z,4248.00
2019-03-27T06:37:09.628Z,4504.00
2019-03-27T06:38:09.638Z,4872.00
2019-03-27T06:39:09.607Z,5164.00
2019-03-27T06:40:09.596Z,5028.00
2019-03-27T06:41:09.586Z,4652.00
2019-03-27T06:42:09.572Z,4716.00
2019-03-27T06:43:09.585Z,4008.00
2019-03-27T06:44:09.549Z,3388.00
2019-03-27T06:45:09.538Z,3312.00
2019-03-27T06:46:09.526Z,3400.00
2019-03-27T06:47:09.518Z,3068.00
2019-03-27T06:48:09.508Z,3044.00
2019-03-27T06:49:09.515Z,4264.00
2019-03-27T06:50:09.486Z,4796.00
2019-03-27T06:51:09.471Z,4788.00
2019-03-27T06:52:09.461Z,4732.00
2019-03-27T06:53:09.457Z,4864.00
2019-03-27T06:54:09.460Z,5228.00
2019-03-27T06:55:09.427Z,5492.00
2019-03-27T06:56:09.416Z,5752.00
2019-03-27T06:57:09.408Z,6072.00
2019-03-27T06:58:09.390Z,5996.00
2019-03-27T06:59:09.403Z,5792.00
2019-03-27T07:00:09.371Z,5708.00
2019-03-27T07:01:09.358Z,5840.00
2019-03-27T07:02:09.343Z,6260.00
2019-03-27T07:03:09.333Z,6748.00
2019-03-27T07:04:10.780Z,7168.00
2019-03-27T07:05:09.328Z,7340.00
2019-03-27T07:06:09.297Z,7260.00
2019-03-27T07:07:09.291Z,7276.00
2019-03-27T07:08:09.273Z,7064.00
2019-03-27T07:09:09.262Z,6932.00
2019-03-27T07:10:09.271Z,6904.00
2019-03-27T07:11:09.238Z,7140.00
2019-03-27T07:12:20.507Z,7596.00
2019-03-27T07:13:10.214Z,7572.00
2019-03-27T07:14:09.204Z,7468.00
2019-03-27T07:15:09.210Z,7304.00
2019-03-27T07:16:09.180Z,6904.00
2019-03-27T07:17:09.168Z,6828.00
2019-03-27T07:18:09.156Z,6824.00
2019-03-27T07:19:09.143Z,7356.00
2019-03-27T07:20:09.148Z,8444.00
2019-03-27T07:21:09.122Z,9892.00
2019-03-27T07:22:09.115Z,11328.00
2019-03-27T07:23:09.094Z,13076.00
2019-03-27T07:24:09.087Z,14104.00
2019-03-27T07:25:09.093Z,14072.00
2019-03-27T07:26:09.059Z,13684.00
2019-03-27T07:27:09.050Z,13912.00
2019-03-27T07:28:09.037Z,14492.00
2019-03-27T07:29:09.026Z,15088.00
2019-03-27T07:30:09.018Z,15644.00
2019-03-27T07:31:09.028Z,15636.00
2019-03-27T07:32:09.000Z,14804.00
2019-03-27T07:33:08.982Z,14212.00
2019-03-27T07:34:08.971Z,14056.00
2019-03-27T07:35:08.955Z,13480.00
2019-03-27T07:36:08.968Z,13264.00
2019-03-27T07:37:08.940Z,13960.00
2019-03-27T07:38:08.923Z,14692.00
2019-03-27T07:39:11.292Z,15324.00
2019-03-27T07:40:08.903Z,15788.00
2019-03-27T07:41:08.889Z,15952.00
2019-03-27T07:42:08.895Z,14976.00
2019-03-27T07:43:08.864Z,13812.00
2019-03-27T07:44:08.853Z,12956.00
2019-03-27T07:45:08.845Z,12828.00
2019-03-27T07:46:08.833Z,13376.00
2019-03-27T07:47:08.836Z,14008.00
2019-03-27T07:48:08.809Z,14348.00
2019-03-27T07:49:08.797Z,14664.00
2019-03-27T07:50:08.789Z,14160.00
2019-03-27T07:51:08.776Z,13788.00
2019-03-27T07:52:08.783Z,13600.00
2019-03-27T07:53:08.753Z,12380.00
2019-03-27T07:54:08.742Z,11852.00
2019-03-27T07:55:18.832Z,12160.00
2019-03-27T07:56:09.716Z,12500.00
2019-03-27T07:57:08.726Z,12496.00
2019-03-27T07:58:08.707Z,12164.00
2019-03-27T07:59:08.683Z,11976.00
2019-03-27T08:00:08.671Z,11976.00
2019-03-27T08:01:08.658Z,12340.00
2019-03-27T08:02:08.690Z,12612.00
2019-03-27T08:03:08.637Z,13220.00
2019-03-27T08:04:08.625Z,14000.00
2019-03-27T08:05:08.613Z,15468.00
2019-03-27T08:06:08.601Z,17376.00
2019-03-27T08:07:08.592Z,18688.00
2019-03-27T08:08:08.603Z,18720.00
2019-03-27T08:09:08.568Z,18624.00
2019-03-27T08:10:08.557Z,18432.00
2019-03-27T08:11:08.543Z,18144.00
2019-03-27T08:12:08.532Z,19008.00
2019-03-27T08:13:08.569Z,20864.00
2019-03-27T08:14:08.513Z,33280.00
2019-03-27T08:15:08.498Z,35904.00
2019-03-27T08:16:08.488Z,45056.00
2019-03-27T08:17:08.477Z,29440.00
2019-03-27T08:18:08.470Z,31776.00
2019-03-27T08:19:08.472Z,46624.00
2019-03-27T08:20:08.441Z,50080.00
2019-03-27T08:21:08.431Z,28704.00
2019-03-27T08:22:08.419Z,27392.00
2019-03-27T08:23:08.413Z,40864.00
2019-03-27T08:24:08.413Z,48064.00
2019-03-27T08:25:08.382Z,33760.00
2019-03-27T08:26:08.371Z,24352.00
2019-03-27T08:27:08.363Z,21536.00
2019-03-27T08:28:08.347Z,19040.00
2019-03-27T08:29:08.357Z,18144.00
2019-03-27T08:30:08.323Z,17472.00
2019-03-27T08:31:08.314Z,17728.00
2019-03-27T08:32:08.303Z,18752.00
2019-03-27T08:33:08.298Z,20768.00
2019-03-27T08:34:08.309Z,22112.00
2019-03-27T08:35:08.268Z,22560.00
2019-03-27T08:36:08.256Z,23104.00
2019-03-27T08:37:08.245Z,41216.00
2019-03-27T08:38:08.235Z,34912.00
2019-03-27T08:39:08.223Z,38144.00
2019-03-27T08:40:08.231Z,48000.00
2019-03-27T08:41:08.199Z,47424.00
2019-03-27T08:42:08.187Z,27232.00
2019-03-27T08:43:20.556Z,27360.00
2019-03-27T08:44:09.165Z,45056.00
2019-03-27T08:45:08.180Z,25536.00
2019-03-27T08:46:08.146Z,27488.00
2019-03-27T08:47:15.165Z,47872.00
2019-03-27T08:48:08.122Z,47136.00
2019-03-27T08:49:21.242Z,26368.00
2019-03-27T08:50:09.120Z,24672.00
2019-03-27T08:51:08.083Z,30528.00
2019-03-27T08:52:08.072Z,28864.00
2019-03-27T08:53:08.062Z,24224.00
2019-03-27T08:54:08.049Z,29312.00
2019-03-27T08:55:08.038Z,24000.00
2019-03-27T08:56:08.048Z,19936.00
2019-03-27T08:57:08.015Z,19616.00
2019-03-27T08:58:08.023Z,19936.00
2019-03-27T08:59:07.992Z,21472.00
2019-03-27T09:00:07.979Z,23712.00
2019-03-27T09:01:07.989Z,26304.00
2019-03-27T09:02:07.957Z,26336.00
2019-03-27T09:03:07.947Z,26688.00
2019-03-27T09:04:07.932Z,28064.00
2019-03-27T09:05:07.922Z,30528.00
2019-03-27T09:06:07.929Z,27392.00
2019-03-27T09:07:07.901Z,91424.00
2019-03-27T09:08:07.889Z,83168.00
2019-03-27T09:09:07.876Z,30784.00
2019-03-27T09:10:07.865Z,57408.00
2019-03-27T09:11:07.869Z,25856.00
2019-03-27T09:12:07.839Z,21312.00
2019-03-27T09:13:07.829Z,30496.00
2019-03-27T09:14:07.816Z,28960.00
2019-03-27T09:15:07.806Z,27584.00
2019-03-27T09:16:07.823Z,82976.00
2019-03-27T09:17:07.781Z,24032.00
2019-03-27T09:18:07.773Z,24512.00
2019-03-27T09:19:07.761Z,48224.00
2019-03-27T09:20:07.750Z,98912.00
2019-03-27T09:21:07.736Z,97472.00
2019-03-27T09:22:07.748Z,97728.00
2019-03-27T09:23:07.713Z,97216.00
2019-03-27T09:24:07.701Z,95040.00
2019-03-27T09:25:07.691Z,91648.00
2019-03-27T09:26:07.680Z,69120.00
2019-03-27T09:27:07.693Z,47072.00
2019-03-27T09:28:07.657Z,93600.00
2019-03-27T09:29:08.535Z,90752.00
2019-03-27T09:30:07.632Z,92672.00
2019-03-27T09:31:07.623Z,61664.00
2019-03-27T09:32:07.650Z,31776.00
2019-03-27T09:33:07.600Z,22656.00
2019-03-27T09:34:07.593Z,22688.00
2019-03-27T09:35:07.578Z,90848.00
2019-03-27T09:36:07.617Z,82400.00
2019-03-27T09:37:07.559Z,26304.00
2019-03-27T09:38:07.565Z,95360.00
2019-03-27T09:39:07.534Z,90272.00
2019-03-27T09:40:07.526Z,58720.00
2019-03-27T09:41:07.511Z,40256.00
2019-03-27T09:42:07.503Z,76096.00
2019-03-27T09:43:07.505Z,99328.00
2019-03-27T09:44:07.480Z,99200.00
2019-03-27T09:45:07.469Z,100864.00
2019-03-27T09:46:07.457Z,94176.00
2019-03-27T09:47:07.461Z,103744.00
2019-03-27T09:48:07.449Z,101216.00
2019-03-27T09:49:07.422Z,101440.00
2019-03-27T09:50:07.409Z,102368.00
2019-03-27T09:51:07.399Z,102528.00
2019-03-27T09:52:07.388Z,103872.00
2019-03-27T09:53:07.415Z,105856.00
2019-03-27T09:54:07.365Z,107232.00
2019-03-27T09:55:07.357Z,109664.00
2019-03-27T09:56:18.356Z,113248.00
2019-03-27T09:57:08.329Z,115872.00
2019-03-27T09:58:07.321Z,117504.00
2019-03-27T09:59:07.327Z,116864.00
2019-03-27T10:00:07.297Z,114624.00
2019-03-27T10:01:07.347Z,102976.00
2019-03-27T10:02:07.279Z,27392.00
2019-03-27T10:03:07.265Z,21984.00
2019-03-27T10:04:07.275Z,20096.00
2019-03-27T10:05:07.242Z,18848.00
2019-03-27T10:06:07.234Z,17664.00
2019-03-27T10:07:07.217Z,16572.00
2019-03-27T10:08:07.208Z,16004.00
2019-03-27T10:09:07.225Z,15440.00
2019-03-27T10:10:07.194Z,15064.00
2019-03-27T10:11:07.177Z,15176.00
2019-03-27T10:12:07.167Z,15212.00
2019-03-27T10:13:07.152Z,15340.00
2019-03-27T10:14:07.141Z,15452.00
2019-03-27T10:15:07.149Z,15576.00
2019-03-27T10:16:07.120Z,15908.00
2019-03-27T10:17:07.107Z,16584.00
2019-03-27T10:18:07.099Z,17920.00
2019-03-27T10:19:07.087Z,20192.00
2019-03-27T10:20:07.093Z,22784.00
2019-03-27T10:21:07.063Z,25792.00
2019-03-27T10:22:07.048Z,112160.00
2019-03-27T10:23:07.036Z,113280.00
2019-03-27T10:24:07.026Z,118560.00
2019-03-27T10:25:07.037Z,98848.00
2019-03-27T10:26:07.004Z,118336.00
2019-03-27T10:27:06.993Z,113536.00
2019-03-27T10:28:06.979Z,105024.00
2019-03-27T10:29:06.968Z,108128.00
2019-03-27T10:30:06.990Z,54880.00
2019-03-27T10:31:06.945Z,72224.00
2019-03-27T10:32:06.934Z,118784.00
2019-03-27T10:33:06.922Z,118464.00
2019-03-27T10:34:06.912Z,102720.00
2019-03-27T10:35:06.903Z,78976.00
2019-03-27T10:36:06.908Z,101824.00
2019-03-27T10:37:06.878Z,92768.00
2019-03-27T10:38:06.864Z,109696.00
2019-03-27T10:39:06.855Z,110400.00
2019-03-27T10:40:06.844Z,110592.00
2019-03-27T10:41:06.851Z,110912.00
2019-03-27T10:42:06.819Z,109344.00
2019-03-27T10:43:06.813Z,111328.00
2019-03-27T10:44:06.799Z,108032.00
2019-03-27T10:45:06.788Z,106720.00
2019-03-27T10:46:06.796Z,107488.00
2019-03-27T10:47:06.762Z,106528.00
2019-03-27T10:48:06.755Z,105280.00
2019-03-27T10:49:06.741Z,103392.00
2019-03-27T10:50:17.004Z,104512.00
2019-03-27T10:51:07.745Z,104352.00
2019-03-27T10:52:06.708Z,106624.00
2019-03-27T10:53:06.699Z,107680.00
2019-03-27T10:54:06.687Z,109408.00
2019-03-27T10:55:06.676Z,111264.00
2019-03-27T10:56:06.665Z,63360.00
2019-03-27T10:57:06.670Z,28224.00
2019-03-27T10:58:06.640Z,26208.00
2019-03-27T10:59:06.631Z,25600.00
2019-03-27T11:00:06.667Z,25632.00
2019-03-27T11:01:07.438Z,24864.00
2019-03-27T11:02:06.613Z,23680.00
2019-03-27T11:03:06.583Z,22080.00
2019-03-27T11:04:06.575Z,20384.00
2019-03-27T11:05:06.561Z,19648.00
2019-03-27T11:06:06.551Z,16956.00
2019-03-27T11:07:06.562Z,15216.00
2019-03-27T11:08:06.526Z,13944.00
2019-03-27T11:09:06.517Z,12764.00
2019-03-27T11:10:06.508Z,11768.00
2019-03-27T11:11:06.494Z,11060.00
2019-03-27T11:12:06.480Z,10616.00
2019-03-27T11:13:06.489Z,10368.00
2019-03-27T11:14:06.457Z,10204.00
2019-03-27T11:15:06.446Z,10144.00
2019-03-27T11:16:06.435Z,10260.00
2019-03-27T11:17:06.426Z,10444.00
2019-03-27T11:18:06.430Z,10844.00
2019-03-27T11:19:06.403Z,11416.00
2019-03-27T11:20:06.389Z,11908.00
2019-03-27T11:21:06.381Z,12516.00
2019-03-27T11:22:06.364Z,13480.00
2019-03-27T11:23:06.377Z,14628.00
2019-03-27T11:24:06.343Z,15640.00
2019-03-27T11:25:06.331Z,16604.00
2019-03-27T11:26:06.370Z,17144.00
2019-03-27T11:27:06.323Z,17888.00
2019-03-27T11:28:06.299Z,18528.00
2019-03-27T11:29:06.336Z,19680.00
2019-03-27T11:30:06.272Z,21216.00
2019-03-27T11:31:06.285Z,23168.00
2019-03-27T11:32:06.270Z,25408.00
2019-03-27T11:33:06.246Z,27616.00
2019-03-27T11:34:06.249Z,29728.00
2019-03-27T11:35:06.214Z,30592.00
2019-03-27T11:36:06.204Z,30752.00
2019-03-27T11:37:06.196Z,31680.00
2019-03-27T11:38:06.179Z,37920.00
2019-03-27T11:39:06.169Z,36832.00
2019-03-27T11:40:06.178Z,36064.00
2019-03-27T11:41:06.149Z,37376.00
2019-03-27T11:42:06.135Z,80704.00
2019-03-27T11:43:06.125Z,42880.00
2019-03-27T11:44:06.111Z,44000.00
2019-03-27T11:45:06.117Z,48832.00
2019-03-27T11:46:06.086Z,40032.00
2019-03-27T11:47:06.080Z,34112.00
2019-03-27T11:48:08.227Z,30208.00
2019-03-27T11:49:06.053Z,28224.00
2019-03-27T11:50:06.081Z,27328.00
2019-03-27T11:51:06.031Z,28864.00
2019-03-27T11:52:06.018Z,27520.00
2019-03-27T11:53:06.011Z,24448.00
2019-03-27T11:54:05.996Z,23136.00
2019-03-27T11:55:05.983Z,21408.00
2019-03-27T11:56:05.994Z,20064.00
2019-03-27T11:57:05.960Z,19200.00
2019-03-27T11:58:05.948Z,18688.00
2019-03-27T11:59:05.939Z,18368.00
2019-03-27T12:00:05.938Z,18208.00
2019-03-27T12:01:05.938Z,18432.00
2019-03-27T12:02:05.906Z,18976.00
2019-03-27T12:03:05.892Z,19680.00
2019-03-27T12:04:05.882Z,20384.00
2019-03-27T12:05:05.871Z,20928.00
2019-03-27T12:06:05.897Z,20864.00
2019-03-27T12:07:05.849Z,21728.00
2019-03-27T12:08:05.835Z,23776.00
2019-03-27T12:09:05.823Z,30336.00
2019-03-27T12:10:05.811Z,33440.00
2019-03-27T12:11:05.800Z,28256.00
2019-03-27T12:12:05.809Z,29216.00
2019-03-27T12:13:05.776Z,30176.00
2019-03-27T12:14:05.765Z,32608.00
2019-03-27T12:15:05.755Z,35584.00
2019-03-27T12:16:05.743Z,46336.00
2019-03-27T12:17:05.752Z,84096.00
2019-03-27T12:18:05.723Z,84704.00
2019-03-27T12:19:05.706Z,78368.00
2019-03-27T12:20:05.698Z,78592.00
2019-03-27T12:21:05.683Z,82784.00
2019-03-27T12:22:05.692Z,85984.00
2019-03-27T12:23:05.663Z,88928.00
2019-03-27T12:24:05.653Z,89504.00